Time;durP1;ratioP1;P1;durP2;ratioP2;P2;SDS_P1;SDS_P2;PMS_P1;PMS_P2;Temp;Humidity;BMP_temperature;BMP_pressure;BME280_temperature;BME280_humidity;BME280_pressure;Samples;Min_cycle;Max_cycle;Signal;HPM_P1;HPM_P2
2022/11/19 00:01:13;;;;;;;3.28;1.00;;;;;;;4.92;100.00;96432.66;5031569;28;20467;-61
2022/11/19 00:03:41;;;;;;;2.38;1.10;;;;;;;4.87;100.00;96417.25;5044848;28;20060;-60
2022/11/19 00:06:13;;;;;;;4.40;1.45;;;;;;;4.92;100.00;96411.19;5045078;28;20040;-60
2022/11/19 00:08:41;;;;;;;6.18;1.85;;;;;;;4.96;100.00;96431.13;5045171;28;20044;-61
2022/11/19 00:11:09;;;;;;;2.90;1.30;;;;;;;4.98;100.00;96431.72;5043441;28;20037;-60
2022/11/19 00:13:40;;;;;;;1.50;0.93;;;;;;;5.02;100.00;96432.03;5053827;28;20475;-61
2022/11/19 00:16:11;;;;;;;2.58;1.25;;;;;;;5.02;100.00;96426.66;5061752;28;20069;-61
2022/11/19 00:18:38;;;;;;;;;;;;;;;5.10;100.00;96430.84;5046968;28;20793;-60
2022/11/19 00:21:06;;;;;;;5.15;1.70;;;;;;;5.06;100.00;96420.56;5034069;28;20364;-61
2022/11/19 00:23:33;;;;;;;2.72;1.38;;;;;;;5.14;100.00;96419.38;5031047;28;20606;-61
2022/11/19 00:26:11;;;;;;;3.15;1.17;;;;;;;5.19;100.00;96419.47;5039041;28;20040;-60
2022/11/19 00:28:39;;;;;;;3.22;1.40;;;;;;;5.24;100.00;96416.09;5025497;28;20068;-60
2022/11/19 00:31:09;;;;;;;2.67;1.13;;;;;;;5.27;100.00;96426.31;5042671;28;20439;-60
2022/11/19 00:33:36;;;;;;;2.28;1.10;;;;;;;5.16;100.00;96421.84;5048723;28;20054;-61
2022/11/19 00:36:05;;;;;;;1.52;0.77;;;;;;;5.06;100.00;96415.19;5048810;28;20129;-60
2022/11/19 00:38:32;;;;;;;4.43;1.48;;;;;;;4.95;100.00;96416.88;5048944;28;20095;-61
2022/11/19 00:40:58;;;;;;;3.10;1.20;;;;;;;4.92;100.00;96414.69;5042465;28;20065;-60
2022/11/19 00:46:11;;;;;;;3.35;1.30;;;;;;;4.73;100.00;96397.16;5049024;28;20036;-60
2022/11/19 00:48:38;;;;;;;3.97;1.65;;;;;;;4.60;100.00;96400.94;5043910;28;20045;-59
2022/11/19 00:51:06;;;;;;;4.93;1.67;;;;;;;4.53;100.00;96396.50;5039744;28;20051;-61
2022/11/19 00:53:33;;;;;;;3.15;1.50;;;;;;;4.55;100.00;96402.47;5049066;28;20045;-60
2022/11/19 00:56:01;;;;;;;2.97;1.10;;;;;;;4.61;100.00;96399.88;5045763;28;20033;-60
2022/11/19 00:58:28;;;;;;;2.15;1.00;;;;;;;4.59;100.00;96402.78;5048999;28;20135;-60
2022/11/19 01:00:55;;;;;;;1.60;0.90;;;;;;;4.62;100.00;96396.13;5047845;28;20385;-60
2022/11/19 01:03:22;;;;;;;2.03;1.23;;;;;;;4.69;100.00;96404.88;5049691;28;20053;-60
2022/11/19 01:05:49;;;;;;;2.10;1.10;;;;;;;4.68;100.00;96401.34;5048384;28;20124;-61
2022/11/19 01:08:16;;;;;;;1.63;0.88;;;;;;;4.73;100.00;96405.19;5049511;28;20115;-60
2022/11/19 01:10:43;;;;;;;4.57;1.10;;;;;;;4.66;100.00;96414.19;5047826;28;20045;-60
2022/11/19 01:15:55;;;;;;;1.50;0.90;;;;;;;4.51;100.00;96416.56;5049867;28;20389;-61
2022/11/19 01:18:22;;;;;;;1.75;1.10;;;;;;;4.38;100.00;96425.66;5060390;28;20049;-60
2022/11/19 01:20:48;;;;;;;3.53;1.08;;;;;;;4.13;100.00;96424.88;5028022;28;20055;-64
2022/11/19 01:23:15;;;;;;;3.50;1.08;;;;;;;3.97;100.00;96422.91;5047048;28;20043;-60
2022/11/19 01:25:42;;;;;;;3.30;1.42;;;;;;;3.95;100.00;96425.84;5045571;28;20045;-61
2022/11/19 01:28:08;;;;;;;5.45;1.40;;;;;;;3.92;100.00;96431.66;5045646;28;20111;-61
2022/11/19 01:30:39;;;;;;;2.28;1.00;;;;;;;3.77;100.00;96432.91;5046790;28;20045;-61
2022/11/19 01:33:06;;;;;;;3.08;1.60;;;;;;;3.61;100.00;96433.59;5035679;28;20061;-60
2022/11/19 01:35:33;;;;;;;2.95;1.75;;;;;;;3.60;100.00;96438.13;5028264;28;20114;-60
2022/11/19 01:38:01;;;;;;;2.90;1.50;;;;;;;3.46;100.00;96442.06;5043738;28;20080;-60
2022/11/19 01:40:28;;;;;;;3.83;1.60;;;;;;;3.49;100.00;96437.06;5047226;28;20049;-60
2022/11/19 01:42:55;;;;;;;4.38;1.75;;;;;;;3.45;100.00;96449.28;5048039;28;20116;-60
2022/11/19 01:45:44;;;;;;;3.92;1.42;;;;;;;3.38;100.00;96441.34;5047801;28;20040;-61
2022/11/19 01:48:28;;;;;;;3.38;1.30;;;;;;;3.51;100.00;96453.69;5047348;28;20120;-60
2022/11/19 01:51:02;;;;;;;3.70;1.40;;;;;;;3.16;100.00;96446.38;5028033;28;20120;-60
2022/11/19 01:53:32;;;;;;;3.60;1.50;;;;;;;3.04;100.00;96451.69;5048219;28;20114;-61
2022/11/19 01:56:02;;;;;;;3.42;1.60;;;;;;;2.96;100.00;96447.47;5043191;28;20045;-59
2022/11/19 01:58:35;;;;;;;5.05;2.00;;;;;;;2.98;100.00;96445.38;5038892;28;20586;-60
2022/11/19 02:01:01;;;;;;;4.90;1.90;;;;;;;3.01;100.00;96443.28;5038041;28;20047;-59
2022/11/19 02:03:30;;;;;;;4.90;1.70;;;;;;;2.84;100.00;96450.09;5048296;28;20163;-60
2022/11/19 02:05:59;;;;;;;3.08;1.75;;;;;;;2.92;100.00;96456.16;5046997;28;20052;-59
2022/11/19 02:08:37;;;;;;;4.70;2.10;;;;;;;2.93;100.00;96449.78;5046311;28;20037;-60
2022/11/19 02:11:19;;;;;;;6.25;2.05;;;;;;;2.95;100.00;96448.50;5045705;28;20044;-61
2022/11/19 02:14:01;;;;;;;4.30;1.83;;;;;;;3.11;100.00;96448.94;5044803;28;20423;-58
2022/11/19 02:16:59;;;;;;;3.53;1.90;;;;;;;3.19;100.00;96453.97;5029147;28;20072;-59
2022/11/19 02:19:40;;;;;;;3.88;1.80;;;;;;;3.55;100.00;96453.25;5037918;28;20067;-60
2022/11/19 02:22:15;;;;;;;4.45;2.05;;;;;;;3.72;100.00;96453.41;5033639;28;20041;-60
2022/11/19 02:24:56;;;;;;;4.18;2.03;;;;;;;3.84;100.00;96456.09;5047636;28;20045;-60
2022/11/19 02:27:50;;;;;;;3.95;1.83;;;;;;;3.97;100.00;96442.47;5035819;28;20148;-59
2022/11/19 02:30:18;;;;;;;4.13;1.60;;;;;;;3.96;100.00;96440.84;5026610;28;20048;-60
2022/11/19 02:33:05;;;;;;;3.67;1.50;;;;;;;4.07;100.00;96441.06;5032818;28;20492;-59
2022/11/19 02:36:19;;;;;;;3.30;1.30;;;;;;;4.17;100.00;96435.97;5027386;28;20053;-59
2022/11/19 02:39:03;;;;;;;3.17;1.48;;;;;;;4.25;100.00;96434.78;5040600;28;20069;-60
2022/11/19 02:41:37;;;;;;;3.38;1.30;;;;;;;4.14;100.00;96434.56;5036397;28;20486;-61
2022/11/19 02:47:17;;;;;;;3.97;1.52;;;;;;;4.31;100.00;96449.91;5031942;28;20045;-58
2022/11/19 02:49:44;;;;;;;2.88;1.15;;;;;;;4.39;100.00;96451.44;5044565;28;20084;-60
2022/11/19 02:52:13;;;;;;;3.63;1.33;;;;;;;4.40;100.00;96447.69;5046797;28;20091;-61
2022/11/19 02:54:40;;;;;;;3.92;1.30;;;;;;;4.40;100.00;96448.53;5045884;28;20124;-61
2022/11/19 02:57:09;;;;;;;3.13;1.20;;;;;;;4.33;100.00;96449.69;5044670;28;20045;-61
2022/11/19 03:05:53;;;;;;;4.80;1.35;;;;;;;4.33;100.00;96449.69;5047133;28;20435;-60
2022/11/19 03:08:20;;;;;;;2.55;1.38;;;;;;;4.25;100.00;96457.03;5040705;28;20094;-60
2022/11/19 03:11:01;;;;;;;4.13;1.30;;;;;;;4.33;100.00;96455.03;5045858;28;20033;-59
2022/11/19 03:16:40;;;;;;;4.90;1.58;;;;;;;4.51;100.00;96444.19;5067003;28;20348;-59
2022/11/19 03:19:12;;;;;;;3.08;1.63;;;;;;;4.49;100.00;96442.81;5046875;28;20095;-60
2022/11/19 03:21:46;;;;;;;3.28;1.45;;;;;;;4.55;100.00;96436.47;5031340;28;20044;-59
2022/11/19 03:24:18;;;;;;;2.65;1.25;;;;;;;4.73;100.00;96438.19;5024848;28;20448;-61
2022/11/19 03:26:56;;;;;;;3.20;1.13;;;;;;;4.87;100.00;96440.59;5034514;28;20404;-60
2022/11/19 03:29:25;;;;;;;3.17;1.50;;;;;;;4.82;100.00;96434.09;5027695;28;20042;-60
2022/11/19 03:31:59;;;;;;;4.15;1.42;;;;;;;4.66;100.00;96424.09;5026695;28;20048;-60
2022/11/19 03:34:29;;;;;;;4.75;1.45;;;;;;;4.65;100.00;96433.22;5045185;28;20071;-60
2022/11/19 03:36:59;;;;;;;4.30;1.30;;;;;;;4.57;100.00;96439.72;5046096;28;20526;-59
2022/11/19 03:39:26;;;;;;;3.90;1.58;;;;;;;4.52;100.00;96439.63;5045940;28;20159;-60
2022/11/19 03:41:53;;;;;;;3.38;1.52;;;;;;;4.57;100.00;96439.72;5045457;28;20060;-58
2022/11/19 03:44:30;;;;;;;4.15;1.63;;;;;;;4.57;100.00;96452.34;5045891;28;20067;-60
2022/11/19 03:47:18;;;;;;;3.17;1.48;;;;;;;4.69;100.00;96450.44;5046149;28;20053;-60
2022/11/19 03:49:50;;;;;;;2.40;1.10;;;;;;;4.80;100.00;96457.63;5045533;28;20155;-60
2022/11/19 03:52:19;;;;;;;2.17;1.20;;;;;;;4.82;100.00;96460.09;5045368;28;20064;-60
2022/11/19 03:54:46;;;;;;;2.17;1.20;;;;;;;4.80;100.00;96467.56;5046032;28;20082;-58
2022/11/19 03:57:17;;;;;;;4.28;1.25;;;;;;;4.91;100.00;96464.00;5041007;28;20424;-60
2022/11/19 03:59:45;;;;;;;4.35;1.75;;;;;;;4.97;100.00;96459.56;5032651;28;20053;-59
2022/11/19 04:02:12;;;;;;;2.75;1.00;;;;;;;5.02;100.00;96462.34;5035554;28;20616;-61
2022/11/19 04:04:39;;;;;;;2.22;1.02;;;;;;;4.97;100.00;96461.47;5046147;28;20041;-61
2022/11/19 04:07:17;;;;;;;1.88;0.93;;;;;;;5.00;100.00;96452.91;5036897;28;20065;-61
2022/11/19 04:09:44;;;;;;;2.00;1.05;;;;;;;5.03;100.00;96455.94;5028568;28;20045;-60
2022/11/19 04:12:20;;;;;;;3.35;0.93;;;;;;;5.01;100.00;96458.03;5044878;28;20099;-60
2022/11/19 04:14:47;;;;;;;1.92;1.10;;;;;;;4.75;100.00;96462.09;5061736;28;20488;-59
2022/11/19 04:17:16;;;;;;;5.57;1.40;;;;;;;4.74;100.00;96457.78;5045570;28;20069;-61
2022/11/19 04:19:42;;;;;;;2.92;1.15;;;;;;;4.81;100.00;96464.66;5045880;28;20075;-60
2022/11/19 04:22:09;;;;;;;2.67;1.17;;;;;;;4.85;100.00;96464.97;5045406;28;20041;-60
2022/11/19 04:24:36;;;;;;;3.45;1.38;;;;;;;4.92;100.00;96459.47;5044286;28;20077;-61
2022/11/19 04:27:03;;;;;;;4.82;1.35;;;;;;;5.01;100.00;96462.63;5031301;28;20053;-60
2022/11/19 04:29:29;;;;;;;2.80;1.40;;;;;;;4.98;100.00;96461.22;5043779;28;20483;-60
2022/11/19 04:31:55;;;;;;;2.45;1.20;;;;;;;4.98;100.00;96455.84;5045201;28;20045;-59
2022/11/19 04:34:22;;;;;;;3.95;1.83;;;;;;;4.89;100.00;96460.78;5044745;28;20068;-60
2022/11/19 04:36:48;;;;;;;3.25;1.10;;;;;;;4.89;100.00;96459.94;5045056;28;20171;-60
2022/11/19 04:39:15;;;;;;;2.80;1.20;;;;;;;4.84;100.00;96462.53;5035258;28;20057;-59
2022/11/19 04:41:42;;;;;;;4.47;1.25;;;;;;;4.86;100.00;96465.81;5037229;28;20427;-60
2022/11/19 04:44:09;;;;;;;2.50;1.30;;;;;;;4.92;100.00;96468.34;5045530;28;20045;-60
2022/11/19 04:46:35;;;;;;;1.73;1.08;;;;;;;4.94;100.00;96462.75;5044800;28;20076;-60
2022/11/19 04:49:02;;;;;;;1.73;1.10;;;;;;;4.91;100.00;96463.22;5045810;28;20124;-60
2022/11/19 04:51:28;;;;;;;3.50;1.23;;;;;;;4.86;100.00;96471.97;5034209;28;20038;-59
2022/11/19 04:53:55;;;;;;;2.75;1.10;;;;;;;4.97;100.00;96474.88;5036786;28;20493;-60
2022/11/19 04:56:21;;;;;;;3.17;1.40;;;;;;;4.99;100.00;96475.44;5036824;28;20119;-60
2022/11/19 04:58:48;;;;;;;3.28;1.20;;;;;;;5.10;100.00;96471.91;5036444;28;20045;-59
2022/11/19 05:01:14;;;;;;;5.00;1.52;;;;;;;5.05;100.00;96463.75;5044623;28;20074;-60
2022/11/19 05:03:41;;;;;;;2.78;1.23;;;;;;;5.04;100.00;96465.63;5045312;28;20041;-60
2022/11/19 05:06:07;;;;;;;4.22;1.10;;;;;;;5.01;100.00;96474.13;5044837;28;20045;-59
2022/11/19 05:08:34;;;;;;;2.67;1.02;;;;;;;5.02;100.00;96465.03;5044724;28;20044;-61
2022/11/19 05:11:00;;;;;;;2.78;1.30;;;;;;;5.07;100.00;96475.06;5044532;28;20147;-60
2022/11/19 05:13:27;;;;;;;3.88;1.10;;;;;;;5.08;100.00;96469.47;5049767;28;20119;-60
2022/11/19 05:15:53;;;;;;;2.80;1.48;;;;;;;5.02;100.00;96478.44;5045388;28;20041;-61
2022/11/19 05:18:20;;;;;;;3.63;1.55;;;;;;;5.00;100.00;96471.69;5042354;28;20071;-60
2022/11/19 05:20:47;;;;;;;2.53;1.40;;;;;;;4.95;100.00;96470.53;5028953;28;20045;-58
2022/11/19 05:23:13;;;;;;;3.28;1.23;;;;;;;4.92;100.00;96470.22;5033859;28;20037;-61
2022/11/19 05:25:40;;;;;;;3.72;1.60;;;;;;;4.89;100.00;96471.50;5045886;28;20124;-60
2022/11/19 05:28:06;;;;;;;3.22;1.75;;;;;;;4.89;100.00;96468.81;5032713;28;20033;-60
2022/11/19 05:30:33;;;;;;;3.42;1.70;;;;;;;4.87;100.00;96472.78;5047135;28;20124;-61
2022/11/19 05:33:00;;;;;;;4.07;1.85;;;;;;;4.85;100.00;96478.41;5048112;28;20051;-60
2022/11/19 05:35:26;;;;;;;3.70;1.83;;;;;;;4.89;100.00;96476.88;5043596;28;20037;-60
2022/11/19 05:37:53;;;;;;;5.30;1.60;;;;;;;5.02;100.00;96475.75;5030296;28;20124;-60
2022/11/19 05:40:19;;;;;;;2.72;1.40;;;;;;;5.01;100.00;96473.34;5042260;28;20072;-60
2022/11/19 05:42:46;;;;;;;3.25;1.42;;;;;;;5.02;100.00;96478.44;5027619;28;20416;-60
2022/11/19 05:45:12;;;;;;;3.38;1.33;;;;;;;4.98;100.00;96482.69;5044182;28;20033;-60
2022/11/19 05:47:39;;;;;;;2.50;1.23;;;;;;;4.99;100.00;96478.94;5033859;28;20456;-61
2022/11/19 05:50:13;;;;;;;2.95;1.38;;;;;;;4.93;100.00;96478.03;5052884;28;20500;-60
2022/11/19 05:52:39;;;;;;;3.03;1.58;;;;;;;4.92;100.00;96480.94;5041834;28;20133;-61
2022/11/19 05:55:06;;;;;;;4.90;2.10;;;;;;;4.90;100.00;96477.69;5048112;28;20102;-60
2022/11/19 05:57:32;;;;;;;6.15;2.35;;;;;;;4.89;100.00;96481.41;5030140;28;20099;-60
2022/11/19 05:59:59;;;;;;;3.90;1.52;;;;;;;4.86;100.00;96482.69;5040605;28;20709;-61
2022/11/19 06:02:25;;;;;;;3.75;1.90;;;;;;;4.84;100.00;96482.13;5029289;28;20575;-61
2022/11/19 06:04:52;;;;;;;8.27;1.88;;;;;;;4.90;100.00;96486.53;5045148;28;20037;-60
2022/11/19 06:07:18;;;;;;;2.78;1.55;;;;;;;5.05;100.00;96491.41;5047700;28;20040;-59
2022/11/19 06:09:45;;;;;;;3.05;1.77;;;;;;;5.11;100.00;96489.63;5044145;28;20033;-60
2022/11/19 06:12:12;;;;;;;2.65;1.40;;;;;;;5.10;100.00;96482.63;5031199;28;20103;-60
2022/11/19 06:14:38;;;;;;;2.90;1.40;;;;;;;5.13;100.00;96482.16;5055841;28;20038;-60
2022/11/19 06:17:05;;;;;;;2.88;1.50;;;;;;;5.20;100.00;96487.41;5036846;28;20071;-60
2022/11/19 06:19:31;;;;;;;3.13;1.52;;;;;;;5.23;100.00;96492.25;5038428;28;20091;-58
2022/11/19 06:21:58;;;;;;;3.35;1.20;;;;;;;5.29;100.00;96488.63;5027252;28;20504;-60
2022/11/19 06:24:24;;;;;;;3.90;1.30;;;;;;;5.12;100.00;96490.47;5038465;28;20405;-60
2022/11/19 06:26:51;;;;;;;2.95;1.45;;;;;;;5.15;100.00;96495.31;5032104;28;20045;-59
2022/11/19 06:29:18;;;;;;;2.72;1.40;;;;;;;4.95;100.00;96489.31;5043996;28;20049;-59
2022/11/19 06:31:45;;;;;;;3.00;1.60;;;;;;;4.87;100.00;96500.41;5045893;28;20047;-57
2022/11/19 06:34:12;;;;;;;3.20;1.77;;;;;;;4.79;100.00;96511.53;5045976;28;20100;-57
2022/11/19 06:36:39;;;;;;;3.85;1.77;;;;;;;4.78;100.00;96510.72;5027254;28;20633;-59
2022/11/19 06:39:13;;;;;;;3.20;1.60;;;;;;;4.86;100.00;96514.09;5035442;28;20075;-58
2022/11/19 06:41:39;;;;;;;5.20;1.98;;;;;;;4.90;100.00;96520.63;5027036;28;20045;-60
2022/11/19 06:44:06;;;;;;;3.47;1.80;;;;;;;4.90;100.00;96517.94;5045010;28;20045;-59
2022/11/19 06:46:32;;;;;;;4.28;2.40;;;;;;;4.82;100.00;96521.78;5043621;28;20455;-60
2022/11/19 06:48:59;;;;;;;4.38;1.88;;;;;;;4.77;100.00;96521.66;5040077;28;20045;-59
2022/11/19 06:51:25;;;;;;;5.32;2.25;;;;;;;4.68;100.00;96526.56;5043035;28;20078;-60
2022/11/19 06:53:52;;;;;;;5.30;2.33;;;;;;;4.64;100.00;96528.91;5042053;28;20043;-59
2022/11/19 06:56:18;;;;;;;3.97;2.03;;;;;;;4.60;100.00;96535.00;5056536;28;20100;-60
2022/11/19 06:58:45;;;;;;;3.95;2.10;;;;;;;4.69;100.00;96536.25;5050387;28;20124;-59
2022/11/19 07:01:13;;;;;;;4.80;1.85;;;;;;;4.88;100.00;96533.44;5043159;28;20045;-59
2022/11/19 07:03:41;;;;;;;5.45;2.20;;;;;;;4.91;100.00;96532.97;5041984;28;20617;-59
2022/11/19 07:06:07;;;;;;;3.50;1.60;;;;;;;5.00;100.00;96533.41;5048209;28;20087;-60
2022/11/19 07:08:36;;;;;;;3.95;1.98;;;;;;;4.99;100.00;96529.91;5039988;28;20582;-59
2022/11/19 07:11:24;;;;;;;2.95;1.80;;;;;;;4.79;100.00;96531.09;5043648;28;20090;-60
2022/11/19 07:13:58;;;;;;;2.90;1.50;;;;;;;4.89;100.00;96532.38;5049610;28;20134;-58
2022/11/19 07:16:32;;;;;;;3.28;1.75;;;;;;;4.97;100.00;96532.00;5041636;28;20667;-60
2022/11/19 07:19:01;;;;;;;3.17;1.50;;;;;;;5.00;100.00;96536.09;5055097;28;20148;-59
2022/11/19 07:21:29;;;;;;;6.68;2.88;;;;;;;4.79;100.00;96541.03;5042086;28;20059;-59
2022/11/19 07:23:57;;;;;;;4.32;2.20;;;;;;;4.59;100.00;96541.38;5030984;28;20103;-59
2022/11/19 07:26:24;;;;;;;4.63;2.47;;;;;;;4.53;100.00;96549.31;5041997;28;20651;-60
2022/11/19 07:28:51;;;;;;;5.30;2.28;;;;;;;4.62;100.00;96557.00;5034982;28;20697;-59
2022/11/19 07:31:17;;;;;;;5.47;3.03;;;;;;;4.70;100.00;96562.03;5042615;28;20049;-59
2022/11/19 07:33:44;;;;;;;4.90;2.67;;;;;;;4.78;100.00;96568.88;5036176;28;20116;-59
2022/11/19 07:36:11;;;;;;;5.35;3.22;;;;;;;4.86;100.00;96567.75;5043679;28;20045;-58
2022/11/19 07:38:44;;;;;;;6.80;3.83;;;;;;;4.94;100.00;96575.44;5030455;28;20047;-60
2022/11/19 07:44:07;;;;;;;5.35;2.90;;;;;;;4.94;100.00;96564.69;5040116;28;20045;-59
2022/11/19 07:46:34;;;;;;;6.35;2.95;;;;;;;4.96;100.00;96573.31;5030293;28;20037;-58
2022/11/19 07:49:01;;;;;;;5.40;2.95;;;;;;;5.04;100.00;96566.75;5042028;28;20055;-59
2022/11/19 07:51:27;;;;;;;4.00;2.40;;;;;;;5.11;100.00;96570.13;5041079;28;20056;-57
2022/11/19 07:53:55;;;;;;;4.78;2.40;;;;;;;5.21;100.00;96564.16;5039121;28;20073;-60
2022/11/19 07:56:22;;;;;;;4.80;2.47;;;;;;;5.23;100.00;96564.72;5042758;28;20106;-58
2022/11/19 07:58:49;;;;;;;4.60;2.10;;;;;;;5.33;100.00;96556.06;5037348;28;20107;-58
2022/11/19 08:01:20;;;;;;;4.78;2.45;;;;;;;5.39;100.00;96559.69;5038531;28;20504;-58
2022/11/19 08:03:48;;;;;;;;;;;;;;;5.38;100.00;96558.84;5048912;28;20127;-59
2022/11/19 08:06:23;;;;;;;3.90;2.28;;;;;;;5.40;100.00;96553.25;5040475;28;19932;-58
2022/11/19 08:08:49;;;;;;;5.70;2.45;;;;;;;5.54;100.00;96548.41;5043786;28;20055;-60
2022/11/19 08:11:17;;;;;;;4.18;2.17;;;;;;;5.58;100.00;96563.81;5056277;28;20123;-59
2022/11/19 08:13:44;;;;;;;4.30;2.47;;;;;;;5.67;100.00;96563.41;5045353;28;20044;-58
2022/11/19 08:18:10;;;;;;;4.80;2.70;;;;;;;5.62;100.00;96563.31;5044093;28;20098;-59
2022/11/19 08:19:06;;;;;;;4.97;2.58;;;;;;;5.63;100.00;96568.47;5035053;28;20040;-60
2022/11/19 08:21:33;;;;;;;4.93;2.40;;;;;;;5.71;100.00;96568.06;5037113;28;20051;-60
2022/11/19 08:24:00;;;;;;;5.25;2.35;;;;;;;5.77;100.00;96576.22;5043942;28;20093;-59
2022/11/19 08:26:26;;;;;;;4.28;2.65;;;;;;;5.85;100.00;96571.28;5047315;28;20072;-59
2022/11/19 08:28:53;;;;;;;4.35;2.60;;;;;;;5.98;100.00;96569.34;5038382;28;20335;-59
2022/11/19 08:31:20;;;;;;;3.42;2.22;;;;;;;6.09;100.00;96573.06;5042080;28;20542;-61
2022/11/19 08:33:46;;;;;;;4.03;2.47;;;;;;;6.10;100.00;96578.19;5047228;28;20585;-56
2022/11/19 08:36:13;;;;;;;4.80;2.63;;;;;;;5.90;100.00;96581.28;5042031;28;20045;-59
2022/11/19 08:38:39;;;;;;;5.38;2.40;;;;;;;5.92;100.00;96584.56;5041156;28;20041;-57
2022/11/19 08:43:51;;;;;;;4.13;2.55;;;;;;;5.88;100.00;96578.03;5043228;28;20041;-59
2022/11/19 08:46:17;;;;;;;4.55;2.20;;;;;;;5.95;100.00;96578.72;5042977;28;20709;-58
2022/11/19 08:48:44;;;;;;;4.35;2.40;;;;;;;6.01;100.00;96578.81;5043543;28;20049;-58
2022/11/19 08:51:13;;;;;;;13.63;7.63;;;;;;;6.11;100.00;96577.13;5042541;28;20075;-58
2022/11/19 08:53:40;;;;;;;5.05;3.63;;;;;;;6.28;100.00;96580.88;5038550;28;20128;-58
2022/11/19 08:56:07;;;;;;;5.07;2.55;;;;;;;6.42;100.00;96584.91;5035012;28;20572;-59
2022/11/19 08:58:34;;;;;;;9.40;6.15;;;;;;;6.49;100.00;96590.91;5041569;28;20051;-57
2022/11/19 09:01:12;;;;;;;4.40;2.50;;;;;;;6.47;100.00;96587.66;5045544;28;20068;-59
2022/11/19 09:03:39;;;;;;;6.93;4.93;;;;;;;6.43;100.00;96591.91;5045963;28;20124;-59
2022/11/19 09:06:06;;;;;;;6.00;3.85;;;;;;;6.28;100.00;96595.16;5045971;28;20129;-58
2022/11/19 09:08:33;;;;;;;5.80;3.33;;;;;;;6.23;100.00;96592.38;5043231;28;20040;-59
2022/11/19 09:11:09;;;;;;;4.85;2.13;;;;;;;6.26;100.00;96596.47;5045612;28;20128;-59
2022/11/19 09:13:36;;;;;;;4.38;2.10;;;;;;;6.26;100.00;96601.84;5051418;28;20619;-60
2022/11/19 09:16:02;;;;;;;5.80;2.30;;;;;;;6.35;100.00;96601.16;5046875;28;20513;-58
2022/11/19 09:18:30;;;;;;;3.15;1.80;;;;;;;6.51;100.00;96604.13;5044618;28;20044;-58
2022/11/19 09:20:57;;;;;;;7.82;3.63;;;;;;;6.38;100.00;96611.44;5034325;28;20076;-58
2022/11/19 09:23:25;;;;;;;4.47;2.10;;;;;;;6.35;100.00;96611.94;5046171;28;20048;-56
2022/11/19 09:26:00;;;;;;;3.13;1.60;;;;;;;6.53;100.00;96609.25;5046551;28;20610;-56
2022/11/19 09:28:28;;;;;;;6.45;3.53;;;;;;;6.43;100.00;96621.50;5044604;28;20053;-56
2022/11/19 09:30:59;;;;;;;11.00;5.50;;;;;;;6.53;100.00;96626.22;5056194;28;20504;-58
2022/11/19 09:33:28;;;;;;;12.03;6.10;;;;;;;6.44;100.00;96624.97;5054389;28;20036;-56
2022/11/19 09:35:54;;;;;;;5.28;2.75;;;;;;;6.38;100.00;96629.47;5056841;28;20098;-58
2022/11/19 09:38:21;;;;;;;13.38;5.78;;;;;;;6.58;100.00;96629.00;5046344;28;20075;-58
2022/11/19 09:40:54;;;;;;;3.13;1.50;;;;;;;6.70;100.00;96623.50;5028261;28;20055;-57
2022/11/19 09:43:23;;;;;;;9.18;3.60;;;;;;;6.62;100.00;96629.31;5040806;28;20076;-58
2022/11/19 09:46:09;;;;;;;4.20;2.25;;;;;;;6.69;100.00;96623.75;5048089;28;20045;-58
2022/11/19 09:48:37;;;;;;;5.55;2.90;;;;;;;6.60;100.00;96631.44;5045641;28;20554;-58
2022/11/19 09:51:13;;;;;;;7.70;3.83;;;;;;;6.54;100.00;96625.16;5041510;28;20122;-58
2022/11/19 09:53:55;;;;;;;5.00;2.03;;;;;;;6.60;100.00;96618.00;5038856;28;20041;-58
2022/11/19 09:56:29;;;;;;;3.60;1.75;;;;;;;6.73;100.00;96627.59;5040822;28;20059;-57
2022/11/19 09:58:57;;;;;;;6.03;3.53;;;;;;;6.75;100.00;96618.22;5053926;28;20072;-58
2022/11/19 10:01:25;;;;;;;3.55;1.45;;;;;;;6.78;100.00;96626.88;5051763;28;20527;-58
2022/11/19 10:03:53;;;;;;;7.28;1.50;;;;;;;6.86;100.00;96627.25;5047862;28;20095;-58
2022/11/19 10:06:54;;;;;;;3.72;1.73;;;;;;;6.76;100.00;96627.09;5050633;28;20075;-57
2022/11/19 10:09:48;;;;;;;2.53;1.40;;;;;;;6.85;100.00;96631.00;5043270;28;20549;-57
2022/11/19 10:12:39;;;;;;;4.60;1.40;;;;;;;6.67;98.87;96631.28;5045007;28;20107;-58
2022/11/19 10:15:35;;;;;;;5.57;1.20;;;;;;;6.64;100.00;96629.88;5027634;28;20073;-56
2022/11/19 10:18:17;;;;;;;4.15;1.30;;;;;;;6.58;100.00;96630.84;5040200;28;20530;-60
2022/11/19 10:21:21;;;;;;;3.20;1.50;;;;;;;6.83;98.82;96625.06;5053504;28;20103;-58
2022/11/19 10:23:55;;;;;;;3.40;1.50;;;;;;;6.78;100.00;96627.66;5047524;28;20079;-57
2022/11/19 10:26:34;;;;;;;3.80;1.65;;;;;;;6.82;97.36;96620.72;5052048;28;20525;-59
2022/11/19 10:29:09;;;;;;;4.40;1.52;;;;;;;6.75;100.00;96622.78;5043006;28;20076;-58
2022/11/19 10:31:42;;;;;;;2.25;1.15;;;;;;;6.84;98.54;96618.63;5053582;28;20123;-58
2022/11/19 10:34:32;;;;;;;3.15;1.27;;;;;;;6.76;98.06;96622.56;5051381;28;20048;-59
2022/11/19 10:37:06;;;;;;;2.80;1.05;;;;;;;6.86;98.28;96619.19;5026961;28;20052;-58
2022/11/19 10:39:41;;;;;;;2.03;1.00;;;;;;;6.61;100.00;96617.75;5042788;28;20500;-58
2022/11/19 10:42:21;;;;;;;3.25;1.10;;;;;;;6.75;98.74;96628.97;5042223;28;20059;-57
2022/11/19 10:45:02;;;;;;;3.25;1.20;;;;;;;6.66;99.23;96619.69;5046882;28;20098;-56
2022/11/19 10:47:43;;;;;;;3.08;1.30;;;;;;;6.74;99.13;96616.59;5046388;28;20041;-57
2022/11/19 10:50:21;;;;;;;4.50;1.27;;;;;;;6.79;95.73;96615.03;5047718;28;20049;-58
2022/11/19 10:53:44;;;;;;;2.95;1.10;;;;;;;6.66;97.81;96616.19;5036789;28;20041;-59
2022/11/19 10:56:18;;;;;;;2.38;1.02;;;;;;;6.65;96.92;96610.00;5029995;28;20080;-57
2022/11/19 10:58:50;;;;;;;2.15;1.02;;;;;;;6.68;99.42;96608.69;5039935;28;20041;-58
2022/11/19 11:01:37;;;;;;;2.85;1.30;;;;;;;6.79;99.00;96613.16;5046388;28;20132;-57
2022/11/19 11:04:11;;;;;;;5.18;1.90;;;;;;;6.89;100.00;96602.53;5038449;28;20106;-57
2022/11/19 11:06:58;;;;;;;3.22;1.10;;;;;;;6.83;98.05;96603.53;5046510;28;20393;-57
2022/11/19 11:09:29;;;;;;;3.95;1.63;;;;;;;6.94;98.52;96598.28;5046483;28;20548;-58
2022/11/19 11:14:53;;;;;;;3.15;1.17;;;;;;;7.00;99.78;96591.91;5062936;28;20099;-58
2022/11/19 11:17:26;;;;;;;3.88;1.10;;;;;;;6.67;99.16;96596.31;5058804;28;20519;-58
2022/11/19 11:20:02;;;;;;;3.35;1.50;;;;;;;6.64;98.46;96597.59;5051878;28;20049;-57
2022/11/19 11:22:29;;;;;;;2.60;0.98;;;;;;;6.80;98.53;96597.81;5041697;28;20044;-58
2022/11/19 11:24:57;;;;;;;1.77;0.90;;;;;;;6.82;97.91;96599.19;5042707;28;20044;-58
2022/11/19 11:27:34;;;;;;;3.55;1.17;;;;;;;6.80;98.33;96592.44;5042913;28;20040;-57
2022/11/19 11:30:18;;;;;;;2.47;0.95;;;;;;;6.91;100.00;96599.59;5057865;28;20419;-59
2022/11/19 11:32:46;;;;;;;2.22;1.00;;;;;;;6.84;100.00;96604.34;5052166;28;20053;-58
2022/11/19 11:35:35;;;;;;;2.75;1.00;;;;;;;6.83;100.00;96598.16;5041385;28;20231;-58
2022/11/19 11:38:03;;;;;;;3.67;1.30;;;;;;;6.68;100.00;96597.91;5043030;28;20049;-56
2022/11/19 11:40:30;;;;;;;5.38;1.98;;;;;;;6.66;100.00;96600.06;5043966;28;20504;-58
2022/11/19 11:42:57;;;;;;;2.03;1.10;;;;;;;6.75;100.00;96596.69;5054590;28;20048;-58
2022/11/19 11:45:29;;;;;;;5.05;1.55;;;;;;;6.76;100.00;96586.75;5054889;28;20073;-58
2022/11/19 11:48:02;;;;;;;3.50;1.67;;;;;;;6.69;100.00;96586.91;5041656;28;20198;-57
2022/11/19 11:50:29;;;;;;;3.40;1.40;;;;;;;6.70;100.00;96588.53;5050979;28;20114;-58
2022/11/19 11:52:58;;;;;;;3.83;1.60;;;;;;;6.83;100.00;96589.25;5043187;28;20050;-56
2022/11/19 11:55:25;;;;;;;2.85;1.33;;;;;;;6.73;100.00;96587.22;5037740;28;20686;-58
2022/11/19 11:58:04;;;;;;;4.05;1.65;;;;;;;6.75;100.00;96585.13;5034836;28;20120;-57
2022/11/19 12:00:41;;;;;;;3.38;1.48;;;;;;;6.98;100.00;96588.66;5031666;28;20511;-56
2022/11/19 12:03:19;;;;;;;2.60;1.45;;;;;;;7.05;99.43;96585.78;5047130;28;20120;-57
2022/11/19 12:06:14;;;;;;;4.03;1.63;;;;;;;6.84;100.00;96589.03;5044098;28;20120;-58
2022/11/19 12:09:06;;;;;;;2.85;1.25;;;;;;;6.80;100.00;96584.38;5043536;28;20048;-56
2022/11/19 12:11:53;;;;;;;3.28;1.48;;;;;;;6.66;100.00;96592.00;5057103;28;20056;-58
2022/11/19 12:14:35;;;;;;;4.03;1.40;;;;;;;6.76;100.00;96589.44;5052352;28;20041;-58
2022/11/19 12:17:20;;;;;;;2.40;1.25;;;;;;;6.69;100.00;96594.16;5051714;28;20045;-58
2022/11/19 12:20:09;;;;;;;3.63;1.60;;;;;;;6.63;100.00;96594.09;5043466;28;20063;-58